SBBR/BSB METAR and TAF weather

Enter ICAO airport designator
Station Type Date Time Source
SBBR METAR 2020/11/27 02:00 UTC NOAA

SBBR 270200Z 08009KT 9999 FEW030 21/15 Q1019


Station Type Date Time Source
SBBR Decoded METAR 2020/11/27 02:00 UTC NOAA

Brasilia Aeroporto , Brazil (SBBR) 15-52S 047-56W 1061M
Nov 26, 2020 - 09:00 PM EST / 2020.11.27 0200 UTC
Wind: from the E (080 degrees) at 10 MPH (9 KT):0
Visibility: greater than 7 mile(s):0
Sky conditions: mostly clear
Temperature: 69 F (21 C)
Dew Point: 59 F (15 C)
Relative Humidity: 68%
Pressure (altimeter): 30.09 in. Hg (1019 hPa)
ob: SBBR 270200Z 08009KT 9999 FEW030 21/15 Q1019
cycle: 2

Station Type Date Time Source
SBBR TAF 2020/11/27 00:27 UTC NOAA

TAF TAF SBBR 262215Z 2700/2724 00000KT 9999 FEW035TN17/2709Z TX28/2718Z
BECMG 2705/2707 08005KT PROB30 2709/2711 08010KT BKN011
BECMG 2713/2715 BKN040 PROB30 2718/2724 7000 TSRA BKN030 FEW040CB
RMK PGG

Example: see airport list